createdAt,value
2018-08-11T00:01:37.180Z,61.46
2018-08-11T00:04:06.524Z,61.81
2018-08-11T00:06:35.354Z,62.27
2018-08-11T00:09:04.816Z,62.81
2018-08-11T00:11:33.932Z,62.97
2018-08-11T00:17:02.284Z,62.99
2018-08-11T00:19:31.167Z,62.49
2018-08-11T00:22:00.044Z,62.42
2018-08-11T00:24:28.915Z,62.71
2018-08-11T00:26:58.492Z,63.24
2018-08-11T00:29:28.051Z,62.80
2018-08-11T00:31:56.868Z,63.05
2018-08-11T00:34:25.740Z,63.69
2018-08-11T00:37:25.307Z,63.15
2018-08-11T00:39:54.617Z,63.74
2018-08-11T00:42:23.536Z,63.72
2018-08-11T00:44:52.363Z,63.46
2018-08-11T00:47:21.510Z,63.25
2018-08-11T00:49:51.068Z,63.63
2018-08-11T00:52:20.700Z,64.21
2018-08-11T00:54:49.513Z,64.46
2018-08-11T00:57:18.991Z,64.31
2018-08-11T00:59:49.303Z,64.28
2018-08-11T01:02:18.889Z,64.34
2018-08-11T01:04:48.473Z,64.55
2018-08-11T01:07:17.619Z,65.51
2018-08-11T01:09:47.034Z,65.63
2018-08-11T01:12:16.527Z,65.88
2018-08-11T01:14:46.063Z,65.83
2018-08-11T01:17:15.661Z,65.53
2018-08-11T01:19:44.601Z,65.72
2018-08-11T01:22:13.393Z,66.36
2018-08-11T01:24:42.192Z,66.73
2018-08-11T01:27:11.649Z,66.24
2018-08-11T01:29:40.907Z,67.18
2018-08-11T01:32:09.754Z,67.27
2018-08-11T01:34:38.503Z,67.02
2018-08-11T01:37:07.357Z,66.94
2018-08-11T01:39:36.867Z,67.12
2018-08-11T01:42:05.650Z,67.15
2018-08-11T01:44:34.539Z,67.84
2018-08-11T01:47:03.449Z,67.74
2018-08-11T01:49:32.815Z,68.11
2018-08-11T01:52:02.339Z,68.80
2018-08-11T01:54:31.151Z,68.42
2018-08-11T01:57:00.736Z,68.32
2018-08-11T01:59:29.501Z,68.54
2018-08-11T02:01:59.227Z,68.81
2018-08-11T02:04:28.567Z,68.46
2018-08-11T02:06:57.392Z,69.30
2018-08-11T02:09:26.467Z,68.88
2018-08-11T02:11:55.264Z,69.46
2018-08-11T02:14:24.015Z,69.63
2018-08-11T02:16:52.939Z,69.01
2018-08-11T02:19:22.167Z,69.45
2018-08-11T02:21:51.034Z,69.06
2018-08-11T02:24:20.747Z,69.46
2018-08-11T02:26:50.236Z,69.80
2018-08-11T02:29:18.994Z,69.38
2018-08-11T02:31:48.923Z,69.39
2018-08-11T02:34:17.993Z,69.63
2018-08-11T02:36:47.095Z,69.99
2018-08-11T02:39:16.300Z,70.35
2018-08-11T02:41:46.108Z,70.33
2018-08-11T02:44:15.130Z,69.70
2018-08-11T02:46:43.935Z,70.02
2018-08-11T02:49:13.690Z,69.82
2018-08-11T02:51:42.840Z,69.73
2018-08-11T02:54:11.574Z,70.13
2018-08-11T02:56:41.116Z,70.27
2018-08-11T02:59:10.054Z,70.60
2018-08-11T03:01:38.866Z,70.39
2018-08-11T03:04:08.147Z,70.80
2018-08-11T03:06:36.893Z,70.67
2018-08-11T03:09:08.336Z,70.28
2018-08-11T03:11:37.136Z,70.01
2018-08-11T03:14:06.083Z,70.43
2018-08-11T03:16:34.872Z,70.51
2018-08-11T03:19:04.253Z,70.23
2018-08-11T03:21:33.003Z,69.99
2018-08-11T03:24:01.823Z,70.66
2018-08-11T03:26:31.236Z,70.56
2018-08-11T03:29:00.768Z,69.89
2018-08-11T03:31:30.112Z,69.14
2018-08-11T03:33:58.904Z,68.31
2018-08-11T03:36:27.643Z,67.06
2018-08-11T03:38:56.432Z,66.43
2018-08-11T03:41:25.199Z,65.34
2018-08-11T03:43:54.488Z,64.04
2018-08-11T03:46:23.246Z,64.50
2018-08-11T03:48:52.699Z,63.29
2018-08-11T03:51:22.175Z,63.18
2018-08-11T03:53:51.003Z,61.25
2018-08-11T03:56:20.148Z,61.75
2018-08-11T03:58:49.512Z,61.47
2018-08-11T04:01:18.470Z,60.84
2018-08-11T04:03:48.480Z,61.32
2018-08-11T04:06:18.196Z,61.52
2018-08-11T04:08:47.167Z,61.39
2018-08-11T04:11:16.784Z,62.45
2018-08-11T04:13:45.891Z,62.33
2018-08-11T04:16:15.947Z,63.68
2018-08-11T04:18:45.564Z,63.68
2018-08-11T04:21:15.793Z,64.36
2018-08-11T04:23:46.143Z,64.77
2018-08-11T04:26:15.855Z,65.25
2018-08-11T04:28:46.096Z,64.66
2018-08-11T04:31:15.720Z,65.29
2018-08-11T04:33:44.549Z,65.20
2018-08-11T04:36:13.517Z,64.85
2018-08-11T04:38:42.308Z,65.55
2018-08-11T04:41:11.133Z,64.92
2018-08-11T04:43:40.398Z,64.93
2018-08-11T04:46:09.263Z,64.95
2018-08-11T04:48:38.652Z,65.30
2018-08-11T04:51:08.096Z,65.27
2018-08-11T04:53:36.863Z,65.33
2018-08-11T04:56:06.400Z,64.95
2018-08-11T04:58:35.688Z,65.26
2018-08-11T05:01:04.460Z,64.47
2018-08-11T05:03:33.893Z,65.14
2018-08-11T05:06:02.857Z,64.68
2018-08-11T05:08:31.622Z,64.68
2018-08-11T05:11:00.466Z,63.74
2018-08-11T05:13:29.371Z,64.20
2018-08-11T05:15:58.331Z,64.21
2018-08-11T05:18:27.140Z,63.49
2018-08-11T05:20:56.580Z,64.33
2018-08-11T05:23:25.756Z,63.83
2018-08-11T05:25:55.289Z,63.24
2018-08-11T05:28:24.728Z,63.43
2018-08-11T05:30:54.246Z,63.52
2018-08-11T05:33:23.036Z,63.11
2018-08-11T05:35:51.883Z,61.90
2018-08-11T05:38:20.721Z,62.48
2018-08-11T05:40:49.490Z,62.34
2018-08-11T05:43:19.068Z,61.54
2018-08-11T05:45:48.097Z,61.81
2018-08-11T05:48:18.296Z,61.76
2018-08-11T05:50:47.986Z,61.01
2018-08-11T05:53:17.925Z,61.62
2018-08-11T05:55:47.967Z,60.80
2018-08-11T05:58:17.980Z,61.93
2018-08-11T06:00:47.874Z,60.77
2018-08-11T06:03:18.329Z,60.87
2018-08-11T06:05:47.925Z,60.68
2018-08-11T06:08:17.021Z,60.42
2018-08-11T06:10:46.715Z,60.66
2018-08-11T06:13:15.747Z,60.29
2018-08-11T06:15:45.473Z,60.12
2018-08-11T06:18:14.625Z,59.38
2018-08-11T06:20:44.048Z,59.47
2018-08-11T06:23:12.840Z,58.65
2018-08-11T06:25:42.363Z,58.09
2018-08-11T06:28:11.710Z,58.51
2018-08-11T06:30:41.124Z,58.21
2018-08-11T06:33:09.891Z,58.28
2018-08-11T06:35:38.713Z,58.11
2018-08-11T06:38:07.591Z,57.69
2018-08-11T06:40:36.447Z,57.92
2018-08-11T06:43:05.767Z,56.59
2018-08-11T06:45:34.575Z,56.69
2018-08-11T06:48:04.046Z,56.76
2018-08-11T06:50:33.348Z,55.23
2018-08-11T06:53:02.176Z,55.75
2018-08-11T06:55:31.598Z,54.55
2018-08-11T06:58:00.804Z,54.48
2018-08-11T07:00:29.582Z,54.75
2018-08-11T07:02:58.790Z,55.54
2018-08-11T07:05:27.560Z,55.70
2018-08-11T07:07:56.296Z,54.23
2018-08-11T07:10:25.085Z,54.28
2018-08-11T07:12:53.888Z,55.22
2018-08-11T07:15:22.802Z,54.36
2018-08-11T07:17:51.574Z,53.94
2018-08-11T07:20:21.287Z,54.02
2018-08-11T07:22:50.102Z,53.07
2018-08-11T07:25:19.532Z,52.26
2018-08-11T07:27:49.140Z,52.76
2018-08-11T07:30:18.695Z,52.68
2018-08-11T07:32:48.311Z,52.03
2018-08-11T07:35:17.291Z,50.26
2018-08-11T07:37:46.371Z,50.58
2018-08-11T07:40:15.629Z,51.65
2018-08-11T07:42:45.442Z,51.89
2018-08-11T07:45:14.218Z,51.55
2018-08-11T07:47:43.676Z,49.78
2018-08-11T07:50:13.226Z,49.35
2018-08-11T07:52:42.032Z,50.10
2018-08-11T07:55:10.809Z,49.83
2018-08-11T07:57:40.256Z,49.57
2018-08-11T08:00:10.802Z,48.47
2018-08-11T08:02:40.517Z,48.07
2018-08-11T08:05:09.697Z,48.25
2018-08-11T08:07:38.421Z,48.07
2018-08-11T08:10:07.755Z,46.03
2018-08-11T08:12:36.519Z,46.22
2018-08-11T08:15:06.047Z,46.43
2018-08-11T08:17:34.896Z,46.60
2018-08-11T08:20:04.507Z,46.19
2018-08-11T08:22:33.338Z,45.97
2018-08-11T08:25:02.836Z,46.44
2018-08-11T08:27:32.171Z,46.82
2018-08-11T08:30:00.917Z,46.65
2018-08-11T08:32:30.246Z,46.60
2018-08-11T08:34:59.005Z,46.18
2018-08-11T08:37:27.724Z,44.96
2018-08-11T08:39:56.487Z,44.83
2018-08-11T08:42:25.801Z,44.14
2018-08-11T08:44:54.575Z,43.87
2018-08-11T08:47:23.814Z,43.53
2018-08-11T08:49:53.002Z,42.55
2018-08-11T08:52:21.723Z,43.51
2018-08-11T08:54:50.762Z,41.74
2018-08-11T08:57:20.072Z,41.71
2018-08-11T08:59:49.013Z,41.97
2018-08-11T09:02:18.703Z,41.68
2018-08-11T09:04:49.365Z,40.56
2018-08-11T09:07:18.407Z,40.67
2018-08-11T09:09:47.628Z,40.80
2018-08-11T09:12:16.725Z,40.46
2018-08-11T09:14:46.345Z,41.21
2018-08-11T09:17:15.440Z,39.66
2018-08-11T09:19:45.443Z,39.70
2018-08-11T09:22:14.366Z,38.15
2018-08-11T09:24:43.313Z,39.90
2018-08-11T09:27:12.739Z,39.75
2018-08-11T09:29:41.578Z,39.75
2018-08-11T09:32:11.072Z,39.50
2018-08-11T09:34:39.876Z,39.95
2018-08-11T09:37:08.644Z,39.82
2018-08-11T09:39:37.444Z,39.15
2018-08-11T09:42:06.907Z,39.03
2018-08-11T09:44:35.713Z,40.29
2018-08-11T09:47:04.576Z,39.85
2018-08-11T09:49:34.342Z,40.42
2018-08-11T09:52:03.696Z,38.86
2018-08-11T09:54:32.433Z,38.46
2018-08-11T09:57:01.679Z,39.47
2018-08-11T09:59:30.424Z,37.78
2018-08-11T10:02:04.780Z,37.89
2018-08-11T10:04:34.876Z,35.79
2018-08-11T10:07:03.764Z,36.29
2018-08-11T10:09:32.563Z,35.91
2018-08-11T10:12:01.323Z,37.13
2018-08-11T10:14:30.112Z,37.55
2018-08-11T10:16:58.999Z,36.17
2018-08-11T10:19:28.476Z,35.66
2018-08-11T10:21:57.227Z,35.66
2018-08-11T10:24:26.010Z,35.82
2018-08-11T10:26:55.531Z,36.27
2018-08-11T10:29:24.257Z,35.36
2018-08-11T10:31:53.817Z,35.71
2018-08-11T10:34:22.566Z,36.15
2018-08-11T10:36:51.323Z,36.08
2018-08-11T10:39:20.089Z,35.63
2018-08-11T10:41:49.866Z,35.04
2018-08-11T10:44:18.785Z,35.15
2018-08-11T10:46:47.948Z,34.75
2018-08-11T10:49:17.608Z,33.56
2018-08-11T10:51:49.759Z,34.60
2018-08-11T10:54:18.623Z,34.35
2018-08-11T10:56:48.268Z,34.71
2018-08-11T10:59:17.338Z,34.32
2018-08-11T11:01:46.418Z,33.04
2018-08-11T11:04:15.996Z,32.54
2018-08-11T11:06:44.960Z,33.15
2018-08-11T11:09:13.759Z,33.82
2018-08-11T11:11:42.565Z,34.06
2018-08-11T11:14:11.385Z,32.58
2018-08-11T11:16:40.213Z,33.70
2018-08-11T11:19:09.783Z,32.17
2018-08-11T11:21:38.568Z,32.92
2018-08-11T11:24:07.371Z,34.52
2018-08-11T11:26:36.847Z,33.55
2018-08-11T11:29:06.251Z,33.02
2018-08-11T11:31:35.947Z,32.59
2018-08-11T11:34:05.085Z,33.40
2018-08-11T11:36:33.852Z,32.40
2018-08-11T11:39:02.764Z,33.40
2018-08-11T11:41:32.171Z,32.77
2018-08-11T11:44:01.096Z,31.33
2018-08-11T11:46:29.839Z,31.55
2018-08-11T11:48:59.024Z,29.69
2018-08-11T11:51:28.332Z,31.33
2018-08-11T11:53:57.510Z,30.65
2018-08-11T11:56:26.672Z,30.86
2018-08-11T11:58:55.850Z,30.05
2018-08-11T12:01:24.664Z,30.26
2018-08-11T12:03:54.073Z,29.57
2018-08-11T12:06:22.837Z,30.48
2018-08-11T12:08:51.628Z,29.42
2018-08-11T12:11:20.496Z,29.38
2018-08-11T12:13:49.268Z,30.09
2018-08-11T12:16:18.254Z,29.00
2018-08-11T12:18:47.591Z,29.15
2018-08-11T12:21:17.202Z,30.07
2018-08-11T12:23:46.186Z,29.13
2018-08-11T12:26:15.892Z,29.57
2018-08-11T12:28:45.573Z,29.28
2018-08-11T12:31:15.283Z,29.42
2018-08-11T12:33:44.002Z,29.68
2018-08-11T12:36:13.011Z,28.85
2018-08-11T12:38:41.823Z,29.18
2018-08-11T12:41:10.668Z,28.29
2018-08-11T12:43:40.100Z,27.91
2018-08-11T12:46:09.745Z,28.60
2018-08-11T12:48:39.087Z,27.75
2018-08-11T12:51:08.797Z,27.66
2018-08-11T12:53:38.072Z,28.48
2018-08-11T12:56:08.830Z,28.69
2018-08-11T12:58:38.046Z,27.67
2018-08-11T13:01:06.912Z,27.46
2018-08-11T13:03:36.395Z,28.29
2018-08-11T13:06:05.366Z,28.03
2018-08-11T13:08:34.072Z,31.06
2018-08-11T13:11:03.031Z,31.30
2018-08-11T13:13:31.768Z,32.46
2018-08-11T13:16:00.609Z,34.73
2018-08-11T13:18:29.388Z,35.41
2018-08-11T13:20:58.697Z,36.37
2018-08-11T13:23:27.414Z,37.76
2018-08-11T13:25:56.950Z,37.15
2018-08-11T13:28:26.428Z,38.81
2018-08-11T13:30:56.023Z,40.00
2018-08-11T13:33:24.868Z,40.39
2018-08-11T13:35:53.636Z,42.26
2018-08-11T13:38:22.480Z,42.93
2018-08-11T13:40:51.299Z,43.01
2018-08-11T13:43:21.017Z,45.30
2018-08-11T13:45:49.813Z,48.01
2018-08-11T13:48:19.495Z,49.96
2018-08-11T13:50:49.081Z,50.74
2018-08-11T13:53:18.881Z,52.28
2018-08-11T13:55:49.087Z,53.40
2018-08-11T13:58:20.222Z,53.52
2018-08-11T14:00:49.015Z,53.04
2018-08-11T14:03:19.140Z,52.98
2018-08-11T14:05:48.231Z,52.88
2018-08-11T14:08:18.184Z,52.67
2018-08-11T14:10:47.721Z,53.25
2018-08-11T14:13:17.528Z,52.65
2018-08-11T14:15:46.642Z,51.82
2018-08-11T14:18:15.946Z,51.68
2018-08-11T14:20:46.033Z,51.15
2018-08-11T14:23:15.186Z,51.16
2018-08-11T14:25:46.889Z,51.74
2018-08-11T14:28:16.732Z,51.60
2018-08-11T14:30:46.202Z,52.30
2018-08-11T14:33:15.160Z,51.26
2018-08-11T14:35:43.941Z,51.60
2018-08-11T14:38:12.751Z,51.07
2018-08-11T14:40:41.558Z,52.51
2018-08-11T14:43:11.147Z,51.92
2018-08-11T14:45:39.999Z,51.50
2018-08-11T14:48:09.563Z,51.28
2018-08-11T14:50:39.484Z,51.52
2018-08-11T14:53:08.915Z,52.15
2018-08-11T14:55:38.388Z,50.55
2018-08-11T14:58:07.877Z,50.01
2018-08-11T15:00:37.066Z,50.12
2018-08-11T15:03:06.519Z,51.64
2018-08-11T15:05:35.641Z,51.81
2018-08-11T15:08:04.424Z,53.60
2018-08-11T15:10:33.195Z,54.41
2018-08-11T15:13:01.988Z,55.38
2018-08-11T15:15:30.877Z,56.31
2018-08-11T15:17:59.708Z,56.40
2018-08-11T15:20:28.469Z,57.18
2018-08-11T15:22:57.211Z,57.73
2018-08-11T15:25:26.842Z,58.31
2018-08-11T15:27:56.431Z,58.50
2018-08-11T15:30:25.240Z,58.59
2018-08-11T15:32:54.566Z,58.85
2018-08-11T15:35:23.304Z,58.64
2018-08-11T15:37:52.062Z,58.01
2018-08-11T15:40:20.858Z,57.79
2018-08-11T15:42:50.519Z,57.82
2018-08-11T15:45:20.268Z,59.57
2018-08-11T15:47:49.523Z,59.07
2018-08-11T15:50:18.854Z,59.58
2018-08-11T15:52:48.457Z,60.22
2018-08-11T15:55:18.111Z,61.75
2018-08-11T15:57:48.473Z,62.99
2018-08-11T16:00:19.175Z,63.40
2018-08-11T16:02:48.940Z,64.41
2018-08-11T16:05:18.561Z,66.31
2018-08-11T16:07:48.507Z,66.03
2018-08-11T16:10:17.783Z,67.38
2018-08-11T16:12:47.027Z,68.03
2018-08-11T16:15:16.259Z,69.04
2018-08-11T16:17:45.780Z,67.62
2018-08-11T16:20:14.687Z,68.33
2018-08-11T16:22:43.492Z,68.39
2018-08-11T16:25:12.886Z,69.04
2018-08-11T16:27:43.064Z,68.66
2018-08-11T16:30:13.090Z,69.38
2018-08-11T16:32:42.447Z,68.83
2018-08-11T16:35:11.219Z,69.33
2018-08-11T16:37:40.024Z,68.96
2018-08-11T16:40:09.225Z,70.05
2018-08-11T16:42:38.502Z,69.77
2018-08-11T16:45:07.456Z,69.18
2018-08-11T16:47:36.821Z,69.87
2018-08-11T16:50:06.337Z,69.23
2018-08-11T16:52:35.824Z,68.92
2018-08-11T16:55:05.383Z,68.35
2018-08-11T16:57:35.102Z,67.93
2018-08-11T17:00:04.000Z,68.50
2018-08-11T17:02:33.792Z,68.02
2018-08-11T17:05:02.507Z,68.80
2018-08-11T17:07:31.234Z,68.35
2018-08-11T17:10:00.018Z,68.74
2018-08-11T17:12:29.494Z,69.16
2018-08-11T17:14:58.215Z,68.71
2018-08-11T17:17:26.967Z,68.84
2018-08-11T17:19:55.733Z,69.97
2018-08-11T17:22:24.651Z,68.91
2018-08-11T17:24:53.551Z,67.94
2018-08-11T17:27:22.892Z,67.75
2018-08-11T17:29:51.639Z,69.22
2018-08-11T17:32:20.911Z,67.95
2018-08-11T17:34:49.699Z,68.03
2018-08-11T17:37:19.040Z,68.12
2018-08-11T17:39:48.159Z,68.51
2018-08-11T17:42:18.590Z,68.98
2018-08-11T17:44:47.785Z,69.37
2018-08-11T17:47:17.313Z,68.97
2018-08-11T17:49:47.319Z,69.74
2018-08-11T17:52:17.473Z,69.17
2018-08-11T17:54:46.438Z,69.09
2018-08-11T17:57:16.388Z,69.22
2018-08-11T17:59:45.461Z,68.76
2018-08-11T18:02:15.185Z,69.26
2018-08-11T18:04:43.947Z,69.38
2018-08-11T18:07:12.732Z,69.02
2018-08-11T18:09:41.494Z,69.73
2018-08-11T18:12:10.511Z,68.76
2018-08-11T18:14:39.371Z,70.44
2018-08-11T18:17:09.052Z,69.83
2018-08-11T18:19:37.922Z,69.59
2018-08-11T18:22:06.899Z,69.57
2018-08-11T18:24:35.730Z,69.63
2018-08-11T18:27:05.416Z,70.28
2018-08-11T18:29:34.187Z,70.72
2018-08-11T18:32:03.583Z,69.88
2018-08-11T18:34:32.416Z,69.52
2018-08-11T18:37:01.179Z,70.63
2018-08-11T18:39:29.968Z,70.49
2018-08-11T18:41:59.489Z,70.98
2018-08-11T18:44:28.262Z,71.35
2018-08-11T18:46:57.559Z,71.63
2018-08-11T18:49:26.981Z,70.99
2018-08-11T18:51:56.439Z,70.97
2018-08-11T18:54:25.431Z,71.76
2018-08-11T18:56:54.843Z,72.11
2018-08-11T18:59:23.591Z,72.27
2018-08-11T19:01:52.858Z,73.23
2018-08-11T19:04:21.959Z,72.99
2018-08-11T19:06:50.823Z,73.71
2018-08-11T19:09:21.390Z,74.07
2018-08-11T19:11:50.263Z,73.95
2018-08-11T19:14:19.263Z,74.42
2018-08-11T19:16:48.355Z,74.62
2018-08-11T19:19:17.478Z,75.27
2018-08-11T19:21:46.412Z,74.67
2018-08-11T19:24:16.096Z,75.35
2018-08-11T19:26:46.215Z,74.70
2018-08-11T19:29:16.468Z,75.32
2018-08-11T19:31:45.891Z,75.33
2018-08-11T19:34:14.690Z,75.82
2018-08-11T19:36:43.548Z,75.71
2018-08-11T19:39:13.094Z,75.55
2018-08-11T19:41:42.756Z,75.43
2018-08-11T19:44:11.701Z,75.43
2018-08-11T19:46:41.065Z,75.85
2018-08-11T19:49:10.445Z,75.63
2018-08-11T19:51:39.766Z,75.68
2018-08-11T19:54:09.398Z,75.19
2018-08-11T19:56:38.831Z,76.42
2018-08-11T19:59:08.013Z,76.29
2018-08-11T20:01:36.828Z,76.65
2018-08-11T20:04:06.220Z,76.01
2018-08-11T20:06:35.001Z,76.00
2018-08-11T20:09:03.939Z,76.67
2018-08-11T20:11:32.736Z,75.78
2018-08-11T20:14:01.528Z,76.04
2018-08-11T20:16:30.383Z,76.15
2018-08-11T20:18:59.166Z,76.62
2018-08-11T20:21:28.670Z,76.00
2018-08-11T20:23:57.471Z,75.56
2018-08-11T20:26:27.028Z,75.08
2018-08-11T20:28:57.125Z,76.42
2018-08-11T20:31:26.498Z,76.75
2018-08-11T20:33:55.274Z,77.69
2018-08-11T20:36:24.052Z,76.37
2018-08-11T20:38:52.803Z,76.74
2018-08-11T20:41:23.163Z,76.59
2018-08-11T20:43:52.488Z,77.85
2018-08-11T20:46:22.080Z,76.74
2018-08-11T20:48:51.434Z,76.94
2018-08-11T20:51:20.728Z,77.75
2018-08-11T20:53:49.979Z,78.64
2018-08-11T20:56:20.209Z,78.02
2018-08-11T20:58:49.470Z,79.11
2018-08-11T21:01:18.689Z,79.16
2018-08-11T21:03:48.305Z,78.57
2018-08-11T21:06:17.843Z,78.96
2018-08-11T21:08:46.889Z,78.11
2018-08-11T21:11:16.127Z,78.84
2018-08-11T21:13:44.980Z,78.55
2018-08-11T21:16:13.948Z,78.37
2018-08-11T21:18:42.792Z,78.70
2018-08-11T21:21:11.563Z,78.10
2018-08-11T21:23:40.873Z,79.03
2018-08-11T21:26:10.432Z,78.65
2018-08-11T21:28:40.504Z,78.85
2018-08-11T21:31:09.867Z,78.41
2018-08-11T21:33:38.690Z,78.36
2018-08-11T21:36:07.504Z,78.93
2018-08-11T21:38:36.335Z,78.16
2018-08-11T21:41:05.175Z,79.17
2018-08-11T21:43:34.343Z,78.11
2018-08-11T21:46:03.155Z,78.72
2018-08-11T21:48:32.621Z,78.50
2018-08-11T21:51:02.087Z,78.58
2018-08-11T21:53:31.438Z,79.32
2018-08-11T21:56:00.738Z,78.65
2018-08-11T21:58:30.113Z,79.20
2018-08-11T22:01:06.288Z,78.92
2018-08-11T22:03:36.041Z,78.87
2018-08-11T22:06:04.848Z,78.74
2018-08-11T22:08:33.754Z,78.51
2018-08-11T22:11:02.554Z,78.05
2018-08-11T22:13:31.559Z,78.69
2018-08-11T22:16:00.693Z,78.03
2018-08-11T22:18:29.478Z,78.94
2018-08-11T22:20:58.283Z,78.34
2018-08-11T22:23:27.080Z,78.47
2018-08-11T22:25:56.490Z,78.03
2018-08-11T22:28:26.410Z,78.36
2018-08-11T22:30:55.874Z,78.33
2018-08-11T22:33:24.674Z,78.16
2018-08-11T22:35:53.537Z,79.00
2018-08-11T22:38:22.620Z,78.76
2018-08-11T22:40:51.797Z,78.08
2018-08-11T22:43:21.655Z,78.90
2018-08-11T22:45:50.498Z,79.71
2018-08-11T22:48:20.007Z,78.18
2018-08-11T22:50:49.484Z,79.12
2018-08-11T22:53:19.478Z,78.72
2018-08-11T22:55:48.909Z,78.97
2018-08-11T22:58:18.558Z,78.77
2018-08-11T23:00:47.833Z,79.17
2018-08-11T23:03:17.694Z,79.06
2018-08-11T23:05:46.955Z,78.54
2018-08-11T23:08:15.864Z,79.74
2018-08-11T23:10:45.058Z,79.60
2018-08-11T23:13:13.923Z,79.18
2018-08-11T23:15:42.916Z,80.21
2018-08-11T23:18:11.767Z,80.43
2018-08-11T23:20:40.591Z,79.48
2018-08-11T23:23:09.328Z,79.95
2018-08-11T23:25:39.310Z,80.56
2018-08-11T23:28:08.759Z,80.27
2018-08-11T23:30:38.483Z,81.30
2018-08-11T23:33:07.398Z,81.17
2018-08-11T23:35:36.196Z,81.63
2018-08-11T23:38:05.145Z,80.95
2018-08-11T23:40:33.925Z,80.71
2018-08-11T23:43:03.751Z,81.09
2018-08-11T23:45:32.610Z,81.74
2018-08-11T23:48:02.202Z,81.85
2018-08-11T23:50:32.985Z,81.06
2018-08-11T23:53:02.383Z,81.04
2018-08-11T23:55:31.954Z,81.15
2018-08-11T23:58:01.285Z,81.40
